createdAt,value
2023-03-26T00:02:46.243Z,2.30
2023-03-26T00:07:48.666Z,2.30
2023-03-26T00:12:50.330Z,2.22
2023-03-26T00:17:54.221Z,1.80
2023-03-26T00:22:56.369Z,2.00
2023-03-26T00:27:58.491Z,2.00
2023-03-26T00:33:00.302Z,1.77
2023-03-26T00:38:02.182Z,1.80
2023-03-26T00:43:10.198Z,2.33
2023-03-26T00:48:12.864Z,1.90
2023-03-26T00:53:15.655Z,1.92
2023-03-26T00:58:18.115Z,2.00
2023-03-26T01:03:26.953Z,1.80
2023-03-26T01:08:35.354Z,1.92
2023-03-26T01:13:38.576Z,2.00
2023-03-26T01:18:41.089Z,1.88
2023-03-26T01:23:49.057Z,1.77
2023-03-26T01:28:57.039Z,1.67
2023-03-26T01:33:58.574Z,1.42
2023-03-26T01:39:21.551Z,1.80
2023-03-26T01:44:35.523Z,1.85
2023-03-26T01:49:37.115Z,2.40
2023-03-26T01:54:38.979Z,2.03
2023-03-26T02:00:01.909Z,1.67
2023-03-26T02:05:21.130Z,1.98
2023-03-26T02:10:29.787Z,2.15
2023-03-26T02:15:31.566Z,2.28
2023-03-26T02:20:33.227Z,1.90
2023-03-26T02:25:36.715Z,1.98
2023-03-26T02:30:39.852Z,1.60
2023-03-26T02:35:45.822Z,2.10
2023-03-26T02:40:47.797Z,1.88
2023-03-26T02:45:50.148Z,2.35
2023-03-26T02:51:25.770Z,2.35
2023-03-26T02:56:34.603Z,1.90
2023-03-26T03:02:14.639Z,1.88
2023-03-26T03:07:17.910Z,1.92
2023-03-26T03:12:19.556Z,1.73
2023-03-26T03:17:21.271Z,1.85
2023-03-26T03:22:22.926Z,2.08
2023-03-26T03:27:27.137Z,2.03
2023-03-26T03:32:36.789Z,2.40
2023-03-26T03:37:39.673Z,1.80
2023-03-26T03:42:43.168Z,2.20
2023-03-26T03:47:46.088Z,2.75
2023-03-26T03:52:50.668Z,2.58
2023-03-26T03:57:53.291Z,2.40
2023-03-26T04:02:58.772Z,2.55
2023-03-26T04:08:03.407Z,2.60
2023-03-26T04:13:25.328Z,2.53
2023-03-26T04:18:32.432Z,2.30
2023-03-26T04:23:42.287Z,2.05
2023-03-26T04:29:11.931Z,2.05
2023-03-26T04:34:26.595Z,2.25
2023-03-26T04:39:38.970Z,2.20
2023-03-26T04:44:59.673Z,1.77
2023-03-26T04:50:01.784Z,2.05
2023-03-26T04:55:07.525Z,2.35
2023-03-26T05:00:20.144Z,2.88
2023-03-26T05:05:29.082Z,2.70
2023-03-26T05:10:33.745Z,3.17
2023-03-26T05:15:49.679Z,2.40
2023-03-26T05:21:06.370Z,2.55
2023-03-26T05:26:10.145Z,2.75
2023-03-26T05:31:11.880Z,2.95
2023-03-26T05:36:19.164Z,2.60
2023-03-26T05:41:50.242Z,2.35
2023-03-26T05:46:53.473Z,3.05
2023-03-26T05:51:58.972Z,2.40
2023-03-26T05:57:10.888Z,2.50
2023-03-26T06:02:31.619Z,2.78
2023-03-26T06:08:08.509Z,2.33
2023-03-26T06:13:13.612Z,3.17
2023-03-26T06:18:15.559Z,2.53
2023-03-26T06:23:34.742Z,2.47
2023-03-26T06:28:36.650Z,2.97
2023-03-26T06:34:04.228Z,2.42
2023-03-26T06:39:07.644Z,3.33
2023-03-26T06:44:11.432Z,2.17
2023-03-26T06:49:31.652Z,2.67
2023-03-26T06:55:01.918Z,2.40
2023-03-26T07:00:39.319Z,2.53
2023-03-26T07:05:59.313Z,3.22
2023-03-26T07:11:39.479Z,3.57
2023-03-26T07:17:16.459Z,2.47
2023-03-26T07:22:36.871Z,2.40
2023-03-26T07:28:11.422Z,3.30
2023-03-26T07:33:39.239Z,2.55
2023-03-26T07:39:16.852Z,3.20
2023-03-26T07:44:39.776Z,2.40
2023-03-26T07:49:57.873Z,3.13
2023-03-26T07:55:14.375Z,3.60
2023-03-26T08:00:45.443Z,3.08
2023-03-26T08:06:19.931Z,2.80
2023-03-26T08:12:05.810Z,3.63
2023-03-26T08:17:14.607Z,3.00
2023-03-26T08:22:26.389Z,3.60
2023-03-26T08:27:37.805Z,3.13
2023-03-26T08:32:39.843Z,3.60
2023-03-26T08:37:41.461Z,3.30
2023-03-26T08:43:07.531Z,3.40
2023-03-26T08:48:28.948Z,4.78
2023-03-26T08:54:03.377Z,3.78
2023-03-26T08:59:25.681Z,3.67
2023-03-26T09:04:59.554Z,3.60
2023-03-26T09:10:10.336Z,4.10
2023-03-26T09:15:33.812Z,4.72
2023-03-26T09:21:13.769Z,5.57
2023-03-26T09:26:26.133Z,6.22
2023-03-26T09:31:57.054Z,6.03
2023-03-26T09:37:13.789Z,6.80
2023-03-26T09:42:46.333Z,8.50
2023-03-26T09:48:36.235Z,9.90
2023-03-26T09:53:44.692Z,11.75
2023-03-26T09:58:52.313Z,12.68
2023-03-26T10:04:26.864Z,11.32
2023-03-26T10:09:59.251Z,11.35
2023-03-26T10:15:08.646Z,11.80
2023-03-26T10:20:37.689Z,11.40
2023-03-26T10:25:56.742Z,11.80
2023-03-26T10:31:37.345Z,11.80
2023-03-26T10:36:44.059Z,11.10
2023-03-26T10:41:45.749Z,11.40
2023-03-26T10:46:56.543Z,11.18
2023-03-26T10:52:16.326Z,11.18
2023-03-26T10:57:40.230Z,11.90
2023-03-26T11:03:07.037Z,12.63
2023-03-26T11:08:18.270Z,11.98
2023-03-26T11:13:41.277Z,12.07
2023-03-26T11:18:59.462Z,12.20
2023-03-26T11:24:43.031Z,12.65
2023-03-26T11:30:15.845Z,12.52
2023-03-26T11:35:40.562Z,11.80
2023-03-26T11:40:50.718Z,12.07
2023-03-26T11:46:13.209Z,12.35
2023-03-26T11:51:32.939Z,12.43
2023-03-26T11:57:04.457Z,11.98
2023-03-26T12:02:04.780Z,12.50
2023-03-26T12:07:21.061Z,12.15
2023-03-26T12:12:29.631Z,11.73
2023-03-26T12:17:37.346Z,12.20
2023-03-26T12:22:43.438Z,11.75
2023-03-26T12:27:48.165Z,11.57
2023-03-26T12:32:53.338Z,11.02
2023-03-26T12:38:13.196Z,8.35
2023-03-26T12:44:49.665Z,5.40
2023-03-26T12:49:15.054Z,5.28
2023-03-26T12:55:01.075Z,4.10
2023-03-26T13:00:28.764Z,3.72
2023-03-26T13:05:40.072Z,3.60
2023-03-26T13:11:02.598Z,2.88
2023-03-26T13:16:14.116Z,2.40
2023-03-26T13:21:21.642Z,2.60
2023-03-26T13:26:51.704Z,3.70
2023-03-26T13:32:14.489Z,2.80
2023-03-26T13:37:22.947Z,2.40
2023-03-26T13:42:26.424Z,2.00
2023-03-26T13:47:38.830Z,1.88
2023-03-26T13:52:45.931Z,1.77
2023-03-26T13:58:02.154Z,1.35
2023-03-26T14:03:43.181Z,1.85
2023-03-26T14:08:50.057Z,1.50
2023-03-26T14:14:08.293Z,1.80
2023-03-26T14:19:37.511Z,2.03
2023-03-26T14:25:12.229Z,9.60
2023-03-26T14:30:28.569Z,1.52
2023-03-26T14:35:48.265Z,1.90
2023-03-26T14:41:08.719Z,1.85
2023-03-26T14:46:44.568Z,2.42
2023-03-26T14:52:02.502Z,2.22
2023-03-26T14:57:13.627Z,2.55
2023-03-26T15:02:36.706Z,2.65
2023-03-26T15:07:51.477Z,3.38
2023-03-26T15:13:12.494Z,2.60
2023-03-26T15:18:35.643Z,2.65
2023-03-26T15:23:49.436Z,2.47
2023-03-26T15:28:59.994Z,3.08
2023-03-26T15:34:20.227Z,11.82
2023-03-26T15:39:59.784Z,3.75
2023-03-26T15:45:20.135Z,3.58
2023-03-26T15:50:43.605Z,2.30
2023-03-26T15:55:54.369Z,2.17
2023-03-26T16:00:56.237Z,2.35
2023-03-26T16:06:35.522Z,2.22
2023-03-26T16:11:52.103Z,3.92
2023-03-26T16:16:59.199Z,1.90
2023-03-26T16:22:02.610Z,1.77
2023-03-26T16:27:15.329Z,2.40
2023-03-26T16:32:28.940Z,8.45
2023-03-26T16:37:40.782Z,1.95
2023-03-26T16:43:21.383Z,11.57
2023-03-26T16:48:32.737Z,31.63
2023-03-26T16:53:58.111Z,10.25
2023-03-26T16:59:07.885Z,9.68
2023-03-26T17:04:23.513Z,4.28
2023-03-26T17:09:41.520Z,2.90
2023-03-26T17:14:48.744Z,2.50
2023-03-26T17:20:19.414Z,2.00
2023-03-26T17:25:24.820Z,2.35
2023-03-26T17:30:52.455Z,2.30
2023-03-26T17:36:12.607Z,2.17
2023-03-26T17:41:35.740Z,2.53
2023-03-26T17:46:42.199Z,2.70
2023-03-26T17:52:03.590Z,2.38
2023-03-26T17:57:29.921Z,2.95
2023-03-26T18:02:41.470Z,3.15
2023-03-26T18:07:46.107Z,3.08
2023-03-26T18:12:57.803Z,4.05
2023-03-26T18:18:17.981Z,4.38
2023-03-26T18:23:35.940Z,4.80
2023-03-26T18:28:43.277Z,5.05
2023-03-26T18:33:48.158Z,5.00
2023-03-26T18:38:49.877Z,4.57
2023-03-26T18:43:51.683Z,4.57
2023-03-26T18:48:55.556Z,4.45
2023-03-26T18:54:12.063Z,4.60
2023-03-26T18:59:35.231Z,4.07
2023-03-26T19:04:37.994Z,4.65
2023-03-26T19:09:41.745Z,4.60
2023-03-26T19:14:58.975Z,4.80
2023-03-26T19:20:01.298Z,7.32
2023-03-26T19:25:04.088Z,7.32
2023-03-26T19:30:07.537Z,8.20
2023-03-26T19:35:21.724Z,8.82
2023-03-26T19:40:30.205Z,7.18
2023-03-26T19:45:34.776Z,6.90
2023-03-26T19:50:42.458Z,6.32
2023-03-26T19:56:13.335Z,6.25
2023-03-26T20:01:29.275Z,7.00
2023-03-26T20:06:42.492Z,6.63
2023-03-26T20:11:47.051Z,6.95
2023-03-26T20:16:48.909Z,6.47
2023-03-26T20:21:52.794Z,7.10
2023-03-26T20:26:54.641Z,5.88
2023-03-26T20:31:56.511Z,4.38
2023-03-26T20:37:01.402Z,2.70
2023-03-26T20:42:03.594Z,1.40
2023-03-26T20:47:05.498Z,1.10
2023-03-26T20:52:07.415Z,0.90
2023-03-26T20:57:11.870Z,0.90
2023-03-26T21:02:13.912Z,0.80
2023-03-26T21:07:18.476Z,0.85
2023-03-26T21:12:42.263Z,0.90
2023-03-26T21:17:44.591Z,1.10
2023-03-26T21:23:07.699Z,0.88
2023-03-26T21:28:35.741Z,1.10
2023-03-26T21:33:44.705Z,0.98
2023-03-26T21:38:47.236Z,0.85
2023-03-26T21:43:49.363Z,1.20
2023-03-26T21:48:51.393Z,1.50
2023-03-26T21:53:53.651Z,1.10
2023-03-26T21:59:13.714Z,1.60
2023-03-26T22:04:18.578Z,1.80
2023-03-26T22:09:26.601Z,1.70
2023-03-26T22:14:38.723Z,1.50
2023-03-26T22:19:40.556Z,1.60
2023-03-26T22:24:42.694Z,1.73
2023-03-26T22:29:44.511Z,2.10
2023-03-26T22:34:46.446Z,3.65
2023-03-26T22:39:48.245Z,5.25
2023-03-26T22:44:50.082Z,5.55
2023-03-26T22:49:52.032Z,5.28
2023-03-26T22:54:53.850Z,5.30
2023-03-26T22:59:55.755Z,5.43
2023-03-26T23:04:57.633Z,4.93
2023-03-26T23:09:59.469Z,5.35
2023-03-26T23:15:05.061Z,6.05
2023-03-26T23:20:17.198Z,5.78
2023-03-26T23:25:20.055Z,5.97
2023-03-26T23:30:22.061Z,4.97
2023-03-26T23:35:24.032Z,5.15
2023-03-26T23:40:25.834Z,4.43
2023-03-26T23:45:27.689Z,4.55
2023-03-26T23:50:29.647Z,4.45
2023-03-26T23:55:31.533Z,5.55
